createdAt,value
2017-12-02T00:00:25.898Z,0.00
2017-12-02T00:02:25.924Z,0.00
2017-12-02T00:03:25.941Z,0.00
2017-12-02T00:04:25.977Z,0.00
2017-12-02T00:05:25.972Z,0.00
2017-12-02T00:06:25.983Z,0.00
2017-12-02T00:07:26.025Z,0.00
2017-12-02T00:09:26.024Z,0.00
2017-12-02T00:10:26.038Z,0.00
2017-12-02T00:11:26.039Z,0.00
2017-12-02T00:12:26.065Z,0.00
2017-12-02T00:13:26.078Z,0.00
2017-12-02T00:14:26.090Z,0.00
2017-12-02T00:15:26.109Z,0.00
2017-12-02T00:16:26.152Z,0.00
2017-12-02T00:17:26.132Z,0.00
2017-12-02T00:18:26.135Z,0.00
2017-12-02T00:19:26.270Z,0.00
2017-12-02T00:23:26.329Z,0.00
2017-12-02T00:24:26.288Z,0.00
2017-12-02T00:25:26.233Z,0.00
2017-12-02T00:26:26.368Z,0.00
2017-12-02T00:27:26.274Z,0.00
2017-12-02T00:28:26.285Z,0.00
2017-12-02T00:30:26.319Z,0.00
2017-12-02T00:31:26.342Z,0.00
2017-12-02T00:32:26.329Z,0.00
2017-12-02T00:33:26.355Z,0.00
2017-12-02T00:34:26.406Z,0.00
2017-12-02T00:35:26.373Z,0.00
2017-12-02T00:36:26.400Z,0.00
2017-12-02T00:38:26.429Z,0.00
2017-12-02T00:39:26.478Z,0.00
2017-12-02T00:40:26.454Z,0.00
2017-12-02T00:42:26.471Z,0.00
2017-12-02T00:43:26.501Z,0.00
2017-12-02T00:44:26.511Z,0.00
2017-12-02T00:45:26.528Z,0.00
2017-12-02T00:46:26.540Z,0.00
2017-12-02T00:47:26.552Z,0.00
2017-12-02T00:48:26.566Z,0.00
2017-12-02T00:49:26.569Z,0.00
2017-12-02T00:50:26.597Z,0.00
2017-12-02T00:52:26.623Z,0.00
2017-12-02T00:53:26.640Z,0.00
2017-12-02T00:55:26.664Z,0.00
2017-12-02T00:56:26.666Z,0.00
2017-12-02T00:57:26.693Z,0.00
2017-12-02T00:58:26.710Z,0.00
2017-12-02T01:02:26.788Z,0.00
2017-12-02T01:03:26.763Z,0.00
2017-12-02T01:04:26.799Z,0.00
2017-12-02T01:07:26.836Z,0.00
2017-12-02T01:08:26.849Z,0.00
2017-12-02T01:09:26.897Z,0.00
2017-12-02T01:10:26.861Z,0.00
2017-12-02T01:11:26.891Z,0.00
2017-12-02T01:12:26.902Z,0.00
2017-12-02T01:13:26.920Z,0.00
2017-12-02T01:14:26.930Z,0.00
2017-12-02T01:15:26.946Z,0.00
2017-12-02T01:16:27.073Z,0.00
2017-12-02T01:17:26.961Z,0.00
2017-12-02T01:18:26.987Z,0.00
2017-12-02T01:20:27.017Z,0.00
2017-12-02T01:21:27.032Z,0.00
2017-12-02T01:22:27.042Z,0.00
2017-12-02T01:24:27.059Z,0.00
2017-12-02T01:26:27.100Z,0.00
2017-12-02T01:28:27.220Z,0.00
2017-12-02T01:29:27.142Z,0.00
2017-12-02T01:31:27.155Z,0.00
2017-12-02T01:32:27.185Z,0.00
2017-12-02T01:33:27.197Z,0.00
2017-12-02T01:34:27.238Z,0.00
2017-12-02T01:36:27.269Z,0.00
2017-12-02T01:38:27.253Z,0.00
2017-12-02T01:40:27.299Z,0.00
2017-12-02T01:41:27.299Z,0.00
2017-12-02T01:42:27.323Z,0.00
2017-12-02T01:43:27.338Z,0.00
2017-12-02T01:45:27.367Z,0.00
2017-12-02T01:47:27.393Z,0.00
2017-12-02T01:48:27.395Z,0.00
2017-12-02T01:49:27.427Z,0.00
2017-12-02T01:50:27.438Z,0.00
2017-12-02T01:52:27.467Z,0.00
2017-12-02T01:53:27.466Z,0.00
2017-12-02T01:54:27.492Z,0.00
2017-12-02T01:55:27.508Z,0.00
2017-12-02T01:56:27.523Z,0.00
2017-12-02T01:57:27.534Z,0.00
2017-12-02T01:58:27.551Z,0.00
2017-12-02T01:59:27.561Z,0.00
2017-12-02T02:00:27.561Z,0.00
2017-12-02T02:01:27.592Z,0.00
2017-12-02T02:02:27.641Z,0.00
2017-12-02T02:03:27.618Z,0.00
2017-12-02T02:04:27.633Z,0.00
2017-12-02T02:05:27.646Z,0.00
2017-12-02T02:06:27.662Z,0.00
2017-12-02T02:07:27.664Z,0.00
2017-12-02T02:08:27.719Z,0.00
2017-12-02T02:10:27.748Z,0.00
2017-12-02T02:11:27.733Z,0.00
2017-12-02T02:13:27.762Z,0.00
2017-12-02T02:14:27.772Z,0.00
2017-12-02T02:15:27.772Z,0.00
2017-12-02T02:16:27.802Z,0.00
2017-12-02T02:20:27.855Z,0.00
2017-12-02T02:21:27.872Z,0.00
2017-12-02T02:22:27.870Z,0.00
2017-12-02T02:23:27.898Z,0.00
2017-12-02T02:24:27.914Z,0.00
2017-12-02T02:26:27.974Z,0.00
2017-12-02T02:27:28.203Z,0.00
2017-12-02T02:28:28.083Z,0.00
2017-12-02T02:29:28.013Z,0.00
2017-12-02T02:30:27.998Z,0.00
2017-12-02T02:31:28.013Z,0.00
2017-12-02T02:32:28.025Z,0.00
2017-12-02T02:33:28.031Z,0.00
2017-12-02T02:34:28.057Z,0.00
2017-12-02T02:35:28.101Z,0.00
2017-12-02T02:36:28.069Z,0.00
2017-12-02T02:37:28.094Z,0.00
2017-12-02T02:40:28.138Z,0.00
2017-12-02T02:42:28.279Z,0.00
2017-12-02T02:43:28.164Z,0.00
2017-12-02T02:44:28.219Z,0.00
2017-12-02T02:45:28.206Z,0.00
2017-12-02T02:46:28.207Z,0.00
2017-12-02T02:47:28.238Z,0.00
2017-12-02T02:49:28.264Z,0.00
2017-12-02T02:50:28.278Z,0.00
2017-12-02T02:51:28.289Z,0.00
2017-12-02T02:52:28.303Z,0.00
2017-12-02T02:53:28.319Z,0.00
2017-12-02T02:54:28.320Z,0.00
2017-12-02T02:56:28.362Z,0.00
2017-12-02T02:57:28.404Z,0.00
2017-12-02T02:58:28.390Z,0.00
2017-12-02T02:59:28.404Z,0.00
2017-12-02T03:01:28.414Z,0.00
2017-12-02T03:03:28.458Z,0.00
2017-12-02T03:04:28.470Z,0.00
2017-12-02T03:05:28.488Z,0.00
2017-12-02T03:06:28.532Z,0.00
2017-12-02T03:07:28.516Z,0.00
2017-12-02T03:08:28.521Z,0.00
2017-12-02T03:09:28.571Z,0.00
2017-12-02T03:10:28.558Z,0.00
2017-12-02T03:11:28.909Z,0.00
2017-12-02T03:12:28.613Z,0.00
2017-12-02T03:13:28.598Z,0.00
2017-12-02T03:14:28.603Z,0.00
2017-12-02T03:15:28.649Z,0.00
2017-12-02T03:17:28.638Z,0.00
2017-12-02T03:20:28.697Z,0.00
2017-12-02T03:23:28.767Z,0.00
2017-12-02T03:24:28.736Z,0.00
2017-12-02T03:25:28.763Z,0.00
2017-12-02T03:26:28.805Z,0.00
2017-12-02T03:27:28.794Z,0.00
2017-12-02T03:28:28.806Z,0.00
2017-12-02T03:29:28.824Z,0.00
2017-12-02T03:32:28.850Z,0.00
2017-12-02T03:33:28.876Z,0.00
2017-12-02T03:34:28.913Z,0.00
2017-12-02T03:35:28.904Z,0.00
2017-12-02T03:36:28.952Z,0.00
2017-12-02T03:38:28.932Z,0.00
2017-12-02T03:39:40.918Z,0.00
2017-12-02T03:40:29.088Z,0.00
2017-12-02T03:41:29.051Z,0.00
2017-12-02T03:42:29.002Z,0.00
2017-12-02T03:43:29.040Z,0.00
2017-12-02T03:44:29.061Z,0.00
2017-12-02T03:45:29.031Z,0.00
2017-12-02T03:46:29.089Z,0.00
2017-12-02T03:49:29.099Z,0.00
2017-12-02T03:52:29.144Z,0.00
2017-12-02T03:53:29.154Z,0.00
2017-12-02T03:54:29.160Z,0.00
2017-12-02T03:56:29.366Z,0.00
2017-12-02T03:57:29.199Z,0.00
2017-12-02T03:58:29.212Z,0.00
2017-12-02T03:59:29.266Z,0.00
2017-12-02T04:00:29.252Z,0.00
2017-12-02T04:01:29.267Z,0.00
2017-12-02T04:02:29.285Z,0.00
2017-12-02T04:04:29.334Z,0.00
2017-12-02T04:05:29.309Z,0.00
2017-12-02T04:06:29.339Z,0.00
2017-12-02T04:08:29.350Z,0.00
2017-12-02T04:09:29.379Z,0.00
2017-12-02T04:10:29.390Z,0.00
2017-12-02T04:11:29.514Z,0.00
2017-12-02T04:12:29.422Z,0.00
2017-12-02T04:14:29.449Z,0.00
2017-12-02T04:15:29.459Z,0.00
2017-12-02T04:16:29.460Z,0.00
2017-12-02T04:17:29.602Z,0.00
2017-12-02T04:18:29.504Z,0.00
2017-12-02T04:19:29.517Z,0.00
2017-12-02T04:20:29.559Z,0.00
2017-12-02T04:22:29.543Z,0.00
2017-12-02T04:23:29.598Z,0.00
2017-12-02T04:26:29.717Z,0.00
2017-12-02T04:27:29.625Z,0.00
2017-12-02T04:29:29.641Z,0.00
2017-12-02T04:30:29.696Z,0.00
2017-12-02T04:31:29.683Z,0.00
2017-12-02T04:32:29.681Z,0.00
2017-12-02T04:34:29.706Z,0.00
2017-12-02T04:35:29.737Z,0.00
2017-12-02T04:37:29.749Z,0.00
2017-12-02T04:38:29.804Z,0.00
2017-12-02T04:39:29.793Z,0.00
2017-12-02T04:40:29.802Z,0.00
2017-12-02T04:41:29.804Z,0.00
2017-12-02T04:42:29.862Z,0.00
2017-12-02T04:43:29.871Z,0.00
2017-12-02T04:44:29.844Z,0.00
2017-12-02T04:45:29.874Z,0.00
2017-12-02T04:46:29.886Z,0.00
2017-12-02T04:47:29.901Z,0.00
2017-12-02T04:48:29.915Z,0.00
2017-12-02T04:49:30.031Z,0.00
2017-12-02T04:52:29.970Z,0.00
2017-12-02T04:53:29.981Z,0.00
2017-12-02T04:54:29.997Z,0.00
2017-12-02T04:56:30.026Z,0.00
2017-12-02T04:57:30.144Z,0.00
2017-12-02T04:58:30.078Z,0.00
2017-12-02T04:59:30.054Z,0.00
2017-12-02T05:02:30.108Z,0.00
2017-12-02T05:03:30.226Z,0.00
2017-12-02T05:04:30.121Z,0.00
2017-12-02T05:05:30.152Z,0.00
2017-12-02T05:07:30.205Z,0.00
2017-12-02T05:08:30.188Z,0.00
2017-12-02T05:09:30.192Z,0.00
2017-12-02T05:10:30.219Z,0.00
2017-12-02T05:11:30.233Z,0.00
2017-12-02T05:12:30.245Z,0.00
2017-12-02T05:13:30.261Z,0.00
2017-12-02T05:14:30.261Z,0.00
2017-12-02T05:15:30.275Z,0.00
2017-12-02T05:16:30.413Z,0.00
2017-12-02T05:17:30.312Z,0.00
2017-12-02T05:18:30.332Z,0.00
2017-12-02T05:19:30.404Z,0.00
2017-12-02T05:20:30.381Z,0.00
2017-12-02T05:21:30.359Z,0.00
2017-12-02T05:23:30.421Z,0.00
2017-12-02T05:24:30.412Z,0.00
2017-12-02T05:25:30.540Z,0.00
2017-12-02T05:27:30.458Z,0.00
2017-12-02T05:28:30.470Z,0.00
2017-12-02T05:29:30.487Z,0.00
2017-12-02T05:30:30.485Z,0.00
2017-12-02T05:33:30.542Z,0.00
2017-12-02T05:34:30.554Z,0.00
2017-12-02T05:35:30.553Z,0.00
2017-12-02T05:37:30.596Z,0.00
2017-12-02T05:38:30.608Z,0.00
2017-12-02T05:39:30.625Z,0.00
2017-12-02T05:40:30.634Z,0.00
2017-12-02T05:44:30.694Z,0.00
2017-12-02T05:45:30.694Z,0.00
2017-12-02T05:46:30.833Z,0.00
2017-12-02T05:47:30.842Z,0.00
2017-12-02T05:52:30.789Z,0.00
2017-12-02T05:53:30.819Z,0.00
2017-12-02T05:54:30.940Z,0.00
2017-12-02T05:55:30.849Z,0.00
2017-12-02T05:57:30.872Z,0.00
2017-12-02T05:59:30.931Z,0.00
2017-12-02T06:00:30.969Z,0.00
2017-12-02T06:01:30.916Z,0.00
2017-12-02T06:02:32.319Z,0.00
2017-12-02T06:04:31.308Z,0.00
2017-12-02T06:07:30.999Z,4.00
2017-12-02T06:08:31.138Z,4.00
2017-12-02T06:09:31.376Z,0.00
2017-12-02T06:10:31.317Z,0.00
2017-12-02T06:11:31.072Z,0.00
2017-12-02T06:12:31.079Z,4.00
2017-12-02T06:13:31.094Z,4.00
2017-12-02T06:14:31.093Z,0.00
2017-12-02T06:15:31.124Z,4.00
2017-12-02T06:17:31.150Z,4.00
2017-12-02T06:18:31.164Z,8.00
2017-12-02T06:19:31.177Z,8.00
2017-12-02T06:20:31.214Z,8.00
2017-12-02T06:21:31.191Z,8.00
2017-12-02T06:22:31.220Z,12.00
2017-12-02T06:23:31.231Z,16.00
2017-12-02T06:24:31.245Z,16.00
2017-12-02T06:25:31.302Z,20.00
2017-12-02T06:26:31.302Z,24.00
2017-12-02T06:27:31.390Z,32.00
2017-12-02T06:28:31.285Z,36.00
2017-12-02T06:29:31.313Z,40.00
2017-12-02T06:30:31.324Z,44.00
2017-12-02T06:31:31.339Z,52.00
2017-12-02T06:32:31.354Z,56.00
2017-12-02T06:35:31.394Z,80.00
2017-12-02T06:36:31.392Z,92.00
2017-12-02T06:38:31.437Z,116.00
2017-12-02T06:39:31.434Z,128.00
2017-12-02T06:41:31.588Z,160.00
2017-12-02T06:42:31.489Z,176.00
2017-12-02T06:43:31.493Z,192.00
2017-12-02T06:44:31.520Z,212.00
2017-12-02T06:45:31.567Z,232.00
2017-12-02T06:46:31.545Z,256.00
2017-12-02T06:47:31.544Z,284.00
2017-12-02T06:51:31.616Z,456.00
2017-12-02T06:52:31.627Z,504.00
2017-12-02T06:53:31.674Z,544.00
2017-12-02T06:54:31.763Z,580.00
2017-12-02T06:56:31.682Z,688.00
2017-12-02T06:58:31.713Z,904.00
2017-12-02T06:59:31.714Z,976.00
2017-12-02T07:00:31.772Z,1044.00
2017-12-02T07:01:31.755Z,1104.00
2017-12-02T07:02:31.766Z,1168.00
2017-12-02T07:03:31.781Z,1232.00
2017-12-02T07:04:31.796Z,1288.00
2017-12-02T07:05:31.853Z,1344.00
2017-12-02T07:07:31.831Z,1468.00
2017-12-02T07:08:31.853Z,1520.00
2017-12-02T07:09:31.869Z,1576.00
2017-12-02T07:10:31.991Z,1640.00
2017-12-02T07:11:31.897Z,1704.00
2017-12-02T07:12:32.018Z,1760.00
2017-12-02T07:13:31.923Z,1816.00
2017-12-02T07:14:31.940Z,1876.00
2017-12-02T07:15:31.953Z,1944.00
2017-12-02T07:16:31.952Z,2012.00
2017-12-02T07:17:31.984Z,2076.00
2017-12-02T07:18:31.997Z,2144.00
2017-12-02T07:19:32.014Z,2212.00
2017-12-02T07:20:32.135Z,2284.00
2017-12-02T07:21:32.039Z,2356.00
2017-12-02T07:22:32.058Z,2432.00
2017-12-02T07:23:32.185Z,2512.00
2017-12-02T07:24:32.114Z,2592.00
2017-12-02T07:25:32.140Z,2680.00
2017-12-02T07:26:32.179Z,2768.00
2017-12-02T07:27:32.121Z,2856.00
2017-12-02T07:29:32.162Z,3036.00
2017-12-02T07:30:32.177Z,3132.00
2017-12-02T07:32:32.208Z,3360.00
2017-12-02T07:33:32.224Z,3452.00
2017-12-02T07:34:32.243Z,3524.00
2017-12-02T07:35:32.258Z,3600.00
2017-12-02T07:36:32.300Z,3680.00
2017-12-02T07:38:32.293Z,3860.00
2017-12-02T07:40:32.430Z,4052.00
2017-12-02T07:42:32.371Z,4216.00
2017-12-02T07:44:32.454Z,4388.00
2017-12-02T07:45:32.462Z,4476.00
2017-12-02T07:46:32.542Z,4560.00
2017-12-02T07:47:32.567Z,4644.00
2017-12-02T07:48:32.468Z,4724.00
2017-12-02T07:49:32.489Z,4808.00
2017-12-02T07:50:32.505Z,4880.00
2017-12-02T07:52:32.523Z,5044.00
2017-12-02T07:53:32.552Z,5140.00
2017-12-02T07:55:32.615Z,5304.00
2017-12-02T07:56:32.635Z,5396.00
2017-12-02T07:57:32.624Z,5476.00
2017-12-02T07:58:32.643Z,5564.00
2017-12-02T07:59:32.645Z,5652.00
2017-12-02T08:00:32.675Z,5736.00
2017-12-02T08:01:32.862Z,5828.00
2017-12-02T08:02:32.697Z,5920.00
2017-12-02T08:03:32.727Z,6012.00
2017-12-02T08:04:32.749Z,6100.00
2017-12-02T08:06:32.767Z,6276.00
2017-12-02T08:07:32.831Z,6364.00
2017-12-02T08:08:33.042Z,6452.00
2017-12-02T08:09:32.950Z,6540.00
2017-12-02T08:10:32.839Z,6624.00
2017-12-02T08:11:32.980Z,6720.00
2017-12-02T08:13:32.940Z,6896.00
2017-12-02T08:14:32.927Z,6980.00
2017-12-02T08:15:32.998Z,7072.00
2017-12-02T08:16:33.020Z,7152.00
2017-12-02T08:17:33.012Z,7236.00
2017-12-02T08:19:33.129Z,7416.00
2017-12-02T08:20:33.040Z,7488.00
2017-12-02T08:23:33.151Z,7772.00
2017-12-02T08:25:33.133Z,7944.00
2017-12-02T08:26:33.137Z,8024.00
2017-12-02T08:28:33.190Z,8192.00
2017-12-02T08:29:33.212Z,8268.00
2017-12-02T08:30:33.228Z,8360.00
2017-12-02T08:31:33.234Z,8432.00
2017-12-02T08:32:33.304Z,8528.00
2017-12-02T08:34:33.310Z,8688.00
2017-12-02T08:35:33.329Z,8788.00
2017-12-02T08:37:33.366Z,8952.00
2017-12-02T08:38:33.389Z,9040.00
2017-12-02T08:39:33.404Z,9132.00
2017-12-02T08:41:33.445Z,9288.00
2017-12-02T08:42:33.468Z,9340.00
2017-12-02T08:43:33.471Z,9416.00
2017-12-02T08:44:33.554Z,9436.00
2017-12-02T08:45:33.528Z,9508.00
2017-12-02T08:46:33.570Z,9584.00
2017-12-02T08:47:34.400Z,9644.00
2017-12-02T08:49:33.605Z,9860.00
2017-12-02T08:50:33.628Z,9932.00
2017-12-02T08:53:33.718Z,10188.00
2017-12-02T08:56:45.259Z,10548.00
2017-12-02T08:57:33.761Z,10648.00
2017-12-02T08:58:33.783Z,10720.00
2017-12-02T08:59:35.176Z,10796.00
2017-12-02T09:00:33.855Z,10880.00
2017-12-02T09:01:33.832Z,10964.00
2017-12-02T09:02:45.218Z,11036.00
2017-12-02T09:03:33.888Z,11128.00
2017-12-02T09:04:33.905Z,11208.00
2017-12-02T09:05:33.953Z,11292.00
2017-12-02T09:06:33.949Z,11360.00
2017-12-02T09:08:34.276Z,11512.00
2017-12-02T09:09:34.007Z,11576.00
2017-12-02T09:10:34.362Z,11672.00
2017-12-02T09:11:34.036Z,11724.00
2017-12-02T09:12:34.072Z,11808.00
2017-12-02T09:13:34.131Z,11904.00
2017-12-02T09:14:34.191Z,11972.00
2017-12-02T09:15:34.136Z,11936.00
2017-12-02T09:16:34.156Z,11872.00
2017-12-02T09:17:34.176Z,11900.00
2017-12-02T09:18:34.187Z,11944.00
2017-12-02T09:19:34.205Z,11968.00
2017-12-02T09:21:34.261Z,12140.00
2017-12-02T09:22:34.282Z,12260.00
2017-12-02T09:25:34.347Z,12472.00
2017-12-02T09:26:34.529Z,12532.00
2017-12-02T09:27:34.393Z,12588.00
2017-12-02T09:28:34.447Z,12788.00
2017-12-02T09:29:34.434Z,12868.00
2017-12-02T09:30:34.453Z,12988.00
2017-12-02T09:31:34.477Z,13060.00
2017-12-02T09:32:34.498Z,13220.00
2017-12-02T09:33:34.585Z,13300.00
2017-12-02T09:34:34.528Z,13420.00
2017-12-02T09:35:34.562Z,13440.00
2017-12-02T09:36:34.604Z,13484.00
2017-12-02T09:37:34.604Z,13512.00
2017-12-02T09:40:34.666Z,13732.00
2017-12-02T09:41:34.724Z,13732.00
2017-12-02T09:43:34.732Z,13952.00
2017-12-02T09:45:34.802Z,14064.00
2017-12-02T09:46:35.131Z,14152.00
2017-12-02T09:48:34.839Z,14300.00
2017-12-02T09:50:35.270Z,14396.00
2017-12-02T09:52:34.922Z,14508.00
2017-12-02T09:54:34.970Z,14648.00
2017-12-02T09:55:34.993Z,14688.00
2017-12-02T09:56:46.281Z,14752.00
2017-12-02T09:57:35.032Z,14808.00
2017-12-02T09:58:35.040Z,14960.00
2017-12-02T09:59:35.077Z,14928.00
2017-12-02T10:01:35.105Z,15048.00
2017-12-02T10:02:35.144Z,15132.00
2017-12-02T10:04:35.217Z,15268.00
2017-12-02T10:05:35.209Z,15260.00
2017-12-02T10:06:35.216Z,15300.00
2017-12-02T10:08:35.328Z,15552.00
2017-12-02T10:10:35.317Z,15648.00
2017-12-02T10:11:35.339Z,15712.00
2017-12-02T10:13:35.369Z,15120.00
2017-12-02T10:14:35.408Z,15552.00
2017-12-02T10:15:35.427Z,16000.00
2017-12-02T10:16:35.449Z,16000.00
2017-12-02T10:18:35.494Z,16096.00
2017-12-02T10:19:35.542Z,16128.00
2017-12-02T10:20:35.541Z,16192.00
2017-12-02T10:21:35.564Z,16224.00
2017-12-02T10:22:35.586Z,16320.00
2017-12-02T10:23:35.615Z,16416.00
2017-12-02T10:24:35.620Z,16480.00
2017-12-02T10:26:35.703Z,16544.00
2017-12-02T10:27:35.731Z,16608.00
2017-12-02T10:28:35.705Z,16704.00
2017-12-02T10:29:35.783Z,16768.00
2017-12-02T10:31:35.772Z,16832.00
2017-12-02T10:34:35.836Z,16992.00
2017-12-02T10:35:35.874Z,17056.00
2017-12-02T10:36:35.898Z,17120.00
2017-12-02T10:37:35.916Z,17152.00
2017-12-02T10:38:35.967Z,17184.00
2017-12-02T10:40:35.975Z,17216.00
2017-12-02T10:41:36.040Z,17280.00
2017-12-02T10:43:36.055Z,17376.00
2017-12-02T10:44:48.405Z,17408.00
2017-12-02T10:46:36.122Z,17504.00
2017-12-02T10:47:36.133Z,17536.00
2017-12-02T10:48:36.169Z,17600.00
2017-12-02T10:49:36.192Z,17600.00
2017-12-02T10:51:36.236Z,17664.00
2017-12-02T10:52:36.259Z,17664.00
2017-12-02T10:53:36.283Z,17696.00
2017-12-02T10:54:36.331Z,17728.00
2017-12-02T10:56:36.381Z,17760.00
2017-12-02T10:58:36.399Z,17760.00
2017-12-02T10:59:36.450Z,17824.00
2017-12-02T11:00:36.449Z,17824.00
2017-12-02T11:01:36.455Z,17856.00
2017-12-02T11:02:36.497Z,17888.00
2017-12-02T11:03:36.519Z,17888.00
2017-12-02T11:04:36.540Z,17888.00
2017-12-02T11:05:36.566Z,17920.00
2017-12-02T11:06:36.596Z,17952.00
2017-12-02T11:07:36.615Z,17984.00
2017-12-02T11:08:36.659Z,17984.00
2017-12-02T11:09:36.658Z,17984.00
2017-12-02T11:12:36.757Z,17984.00
2017-12-02T11:13:36.757Z,18016.00
2017-12-02T11:14:36.784Z,18016.00
2017-12-02T11:15:36.807Z,18048.00
2017-12-02T11:17:36.854Z,18048.00
2017-12-02T11:18:36.877Z,18016.00
2017-12-02T11:19:36.902Z,18016.00
2017-12-02T11:20:36.930Z,18080.00
2017-12-02T11:21:36.953Z,18080.00
2017-12-02T11:22:36.966Z,18112.00
2017-12-02T11:23:37.002Z,18144.00
2017-12-02T11:24:37.132Z,18144.00
2017-12-02T11:26:37.072Z,18272.00
2017-12-02T11:27:37.182Z,18304.00
2017-12-02T11:28:37.113Z,18272.00
2017-12-02T11:29:37.157Z,18400.00
2017-12-02T11:30:37.176Z,18400.00
2017-12-02T11:31:37.185Z,18208.00
2017-12-02T11:33:37.236Z,18336.00
2017-12-02T11:34:37.274Z,18336.00
2017-12-02T11:36:37.429Z,18272.00
2017-12-02T11:38:37.375Z,18336.00
2017-12-02T11:39:37.401Z,18272.00
2017-12-02T11:40:37.414Z,18304.00
2017-12-02T11:41:37.451Z,18304.00
2017-12-02T11:43:37.492Z,18208.00
2017-12-02T11:44:37.532Z,18240.00
2017-12-02T11:45:37.557Z,18368.00
2017-12-02T11:46:37.581Z,18272.00
2017-12-02T11:47:37.636Z,18176.00
2017-12-02T11:49:37.647Z,18240.00
2017-12-02T11:50:37.684Z,18144.00
2017-12-02T11:51:37.711Z,18144.00
2017-12-02T11:52:37.726Z,18144.00
2017-12-02T11:53:37.765Z,18240.00
2017-12-02T11:55:37.818Z,17984.00
2017-12-02T11:56:37.847Z,17952.00
2017-12-02T11:58:37.944Z,18176.00
2017-12-02T11:59:37.927Z,18336.00
2017-12-02T12:00:37.953Z,18496.00
2017-12-02T12:01:37.981Z,18624.00
2017-12-02T12:02:38.008Z,18432.00
2017-12-02T12:03:38.140Z,12244.00
2017-12-02T12:04:38.102Z,8824.00
2017-12-02T12:05:38.074Z,8992.00
2017-12-02T12:06:38.114Z,13384.00
2017-12-02T12:08:38.154Z,13368.00
2017-12-02T12:10:38.221Z,18496.00
2017-12-02T12:11:38.233Z,18400.00
2017-12-02T12:12:38.270Z,17952.00
2017-12-02T12:13:38.282Z,17760.00
2017-12-02T12:14:38.370Z,17632.00
2017-12-02T12:15:38.377Z,17536.00
2017-12-02T12:18:38.427Z,17216.00
2017-12-02T12:19:38.566Z,17216.00
2017-12-02T12:21:38.537Z,17216.00
2017-12-02T12:22:38.536Z,17216.00
2017-12-02T12:23:38.546Z,17088.00
2017-12-02T12:24:38.588Z,16960.00
2017-12-02T12:25:38.612Z,17024.00
2017-12-02T12:27:38.653Z,16768.00
2017-12-02T12:28:38.714Z,16544.00
2017-12-02T12:29:38.720Z,16576.00
2017-12-02T12:30:38.773Z,16608.00
2017-12-02T12:31:38.760Z,16352.00
2017-12-02T12:34:38.855Z,16352.00
2017-12-02T12:36:38.935Z,16288.00
2017-12-02T12:37:38.918Z,16160.00
2017-12-02T12:38:38.981Z,16224.00
2017-12-02T12:39:38.987Z,16064.00
2017-12-02T12:40:38.997Z,15936.00
2017-12-02T12:41:39.040Z,15840.00
2017-12-02T12:42:39.063Z,15488.00
2017-12-02T12:43:39.091Z,15424.00
2017-12-02T12:44:39.115Z,14936.00
2017-12-02T12:45:39.140Z,14576.00
2017-12-02T12:46:39.170Z,14192.00
2017-12-02T12:47:39.196Z,14412.00
2017-12-02T12:48:39.209Z,14576.00
2017-12-02T12:50:39.609Z,14820.00
2017-12-02T12:51:39.286Z,14712.00
2017-12-02T12:52:39.328Z,14680.00
2017-12-02T12:53:39.352Z,14932.00
2017-12-02T12:54:39.377Z,15424.00
2017-12-02T12:55:39.406Z,15680.00
2017-12-02T12:56:39.433Z,15712.00
2017-12-02T12:57:39.460Z,15584.00
2017-12-02T12:58:39.472Z,15552.00
2017-12-02T12:59:39.512Z,15360.00
2017-12-02T13:00:39.565Z,15328.00
2017-12-02T13:01:39.561Z,15296.00
2017-12-02T13:02:39.694Z,15296.00
2017-12-02T13:03:39.614Z,15200.00
2017-12-02T13:04:39.641Z,15104.00
2017-12-02T13:05:39.773Z,15040.00
2017-12-02T13:06:39.722Z,14816.00
2017-12-02T13:08:39.742Z,14532.00
2017-12-02T13:09:39.771Z,14508.00
2017-12-02T13:10:39.821Z,14456.00
2017-12-02T13:11:39.809Z,14376.00
2017-12-02T13:12:39.951Z,14352.00
2017-12-02T13:13:39.901Z,14268.00
2017-12-02T13:14:39.902Z,14084.00
2017-12-02T13:18:40.030Z,13700.00
2017-12-02T13:19:40.028Z,13524.00
2017-12-02T13:20:40.050Z,13504.00
2017-12-02T13:21:40.924Z,13328.00
2017-12-02T13:23:40.116Z,13200.00
2017-12-02T13:24:40.154Z,13080.00
2017-12-02T13:25:40.181Z,12928.00
2017-12-02T13:28:40.286Z,12716.00
2017-12-02T13:30:40.307Z,12592.00
2017-12-02T13:31:40.332Z,12548.00
2017-12-02T13:32:40.359Z,12484.00
2017-12-02T13:34:40.406Z,12132.00
2017-12-02T13:35:40.430Z,12040.00
2017-12-02T13:37:40.466Z,11916.00
2017-12-02T13:39:40.532Z,11872.00
2017-12-02T13:40:40.662Z,10412.00
2017-12-02T13:41:40.582Z,10040.00
2017-12-02T13:42:40.712Z,10380.00
2017-12-02T13:44:40.639Z,10960.00
2017-12-02T13:47:40.843Z,10916.00
2017-12-02T13:48:40.751Z,10872.00
2017-12-02T13:50:40.804Z,10584.00
2017-12-02T13:51:40.825Z,10468.00
2017-12-02T13:54:40.881Z,10148.00
2017-12-02T13:55:40.927Z,10064.00
2017-12-02T13:56:40.942Z,9908.00
2017-12-02T13:57:41.017Z,9784.00
2017-12-02T13:58:41.097Z,8556.00
2017-12-02T13:59:41.015Z,5932.00
2017-12-02T14:00:41.025Z,3488.00
2017-12-02T14:01:41.059Z,2840.00
2017-12-02T14:03:41.161Z,2668.00
2017-12-02T14:04:41.231Z,2624.00
2017-12-02T14:06:41.161Z,2548.00
2017-12-02T14:08:41.215Z,2480.00
2017-12-02T14:10:41.327Z,2420.00
2017-12-02T14:11:41.272Z,2396.00
2017-12-02T14:12:41.302Z,2368.00
2017-12-02T14:14:41.346Z,2316.00
2017-12-02T14:16:41.388Z,2260.00
2017-12-02T14:17:41.405Z,2232.00
2017-12-02T14:18:41.450Z,2208.00
2017-12-02T14:20:41.468Z,2152.00
2017-12-02T14:21:41.489Z,2124.00
2017-12-02T14:22:41.506Z,2096.00
2017-12-02T14:23:41.535Z,2072.00
2017-12-02T14:25:41.553Z,2016.00
2017-12-02T14:26:41.585Z,1988.00
2017-12-02T14:27:41.601Z,1964.00
2017-12-02T14:29:41.641Z,1892.00
2017-12-02T14:31:41.678Z,1828.00
2017-12-02T14:32:41.697Z,1804.00
2017-12-02T14:33:41.715Z,1776.00
2017-12-02T14:34:41.735Z,1752.00
2017-12-02T14:35:41.867Z,1724.00
2017-12-02T14:36:41.756Z,1704.00
2017-12-02T14:37:41.787Z,1676.00
2017-12-02T14:39:41.812Z,1620.00
2017-12-02T14:40:41.875Z,1592.00
2017-12-02T14:41:41.860Z,1560.00
2017-12-02T14:42:41.905Z,1532.00
2017-12-02T14:43:41.895Z,1504.00
2017-12-02T14:45:41.918Z,1444.00
2017-12-02T14:46:41.974Z,1420.00
2017-12-02T14:47:41.969Z,1388.00
2017-12-02T14:48:41.979Z,1360.00
2017-12-02T14:50:42.071Z,1300.00
2017-12-02T14:51:42.035Z,1272.00
2017-12-02T14:53:42.054Z,1216.00
2017-12-02T14:54:42.088Z,1188.00
2017-12-02T14:55:42.209Z,1160.00
2017-12-02T14:56:42.121Z,1128.00
2017-12-02T14:59:42.279Z,1040.00
2017-12-02T15:00:42.184Z,1012.00
2017-12-02T15:01:42.210Z,980.00
2017-12-02T15:02:42.222Z,952.00
2017-12-02T15:03:42.223Z,928.00
2017-12-02T15:04:42.255Z,900.00
2017-12-02T15:05:42.297Z,876.00
2017-12-02T15:06:42.289Z,852.00
2017-12-02T15:07:42.306Z,824.00
2017-12-02T15:09:42.337Z,756.00
2017-12-02T15:10:42.341Z,724.00
2017-12-02T15:11:42.368Z,696.00
2017-12-02T15:13:42.444Z,628.00
2017-12-02T15:17:42.453Z,496.00
2017-12-02T15:19:42.501Z,440.00
2017-12-02T15:20:42.517Z,412.00
2017-12-02T15:23:42.553Z,332.00
2017-12-02T15:24:42.602Z,308.00
2017-12-02T15:25:42.621Z,284.00
2017-12-02T15:27:42.640Z,232.00
2017-12-02T15:28:42.647Z,212.00
2017-12-02T15:29:42.697Z,188.00
2017-12-02T15:30:42.666Z,168.00
2017-12-02T15:31:42.692Z,148.00
2017-12-02T15:32:42.709Z,136.00
2017-12-02T15:33:42.764Z,120.00
2017-12-02T15:35:42.868Z,92.00
2017-12-02T15:36:42.889Z,76.00
2017-12-02T15:37:42.810Z,68.00
2017-12-02T15:38:42.842Z,60.00
2017-12-02T15:39:42.821Z,52.00
2017-12-02T15:40:42.824Z,48.00
2017-12-02T15:43:42.885Z,28.00
2017-12-02T15:45:43.618Z,20.00
2017-12-02T15:46:42.931Z,20.00
2017-12-02T15:47:42.935Z,12.00
2017-12-02T15:48:42.971Z,12.00
2017-12-02T15:49:42.978Z,12.00
2017-12-02T15:50:42.995Z,8.00
2017-12-02T15:51:43.012Z,4.00
2017-12-02T15:52:43.143Z,4.00
2017-12-02T15:54:43.046Z,4.00
2017-12-02T15:55:43.103Z,0.00
2017-12-02T15:56:43.092Z,4.00
2017-12-02T15:57:43.107Z,4.00
2017-12-02T15:58:43.121Z,0.00
2017-12-02T15:59:43.139Z,0.00
2017-12-02T16:00:50.650Z,0.00
2017-12-02T16:01:43.152Z,4.00
2017-12-02T16:02:43.171Z,4.00
2017-12-02T16:03:43.185Z,0.00